OIZJ  Jask Airport

Add Bookmark

Jask, Iran

Status
Operational
Latitude Longitude
25° 39' 12" N 57° 47' 57" E
25.653601 57.799301
Local (DST + 5) UTC (GMT + 4)
Oct 24, 2014 12:59 Oct 24, 2014 09:29
Sunrise-Sunset Local UTC
Begin Civil Twilight 05:17 01:47
Sunrise 05:41 02:11
Sunset 05:04 13:34
End Civil Twilight 05:28 13:58

Current Weather

METAR Observed MVFR
OIZJ 240900Z 24004KT 8000 SKC 32/23 Q1010 Fri, Oct 24, 2014 @ 09:00 UTC
(29 Minutes ago)
Marginal Visual Flight Rules
Wind Visibility Clouds Conditions
240° at 4 knots (7 kph) 8000 meters
  • Clear skies
  • No significant weather
Temperatures Readings Precipitation
Current Temp 32°C (90°F)
Dewpoint 23°C (73°F)
Heat Index 37°C (99°F)
Humidity 59%
Altimeter 29.82"Hg
Sea Level Pressure 1010mb
Field Elevation 13.12'
None Recorded

Additional weather within a 185.2km radius of OIZJ

Map ICAO Location
OMFJ 159.8km W (248°)
OIKO 178.5km N (337°)

24 Hour Weather History

Loading
-

24 Hour Weather Graphs

Loading
-

CheckWX.com is intended as a tool to help pilots better visualize weather data. It is not intended as a substitute for an official weather briefing obtained from a Flight Service Station. CheckWX.com does not meet the FAA requirements for an official pre-flight weather briefing. Therefore, it's important that pilots still call and obtain an official FSS pre-flight weather briefing.